Hathor — PHIY — position and weather

sailwx.info

Track history (hours):
 
Tides and Currents Weather Stations Pressure Air Temp Water Temp Dewpoint Dewpoint Depression Visibility Wind Speed Wind Dir Waves Ship Positions

Hathor

Last reported at 2017-Sep-19 03:06 UTC. Time now 2017-Sep-19 11:49 UTC.
Position N 50°07' W 000°56'.

Length 89 m; draft 5.6 m.

Type: Cargo ship. MMSI: 244176000.

Date/timePositionNaut miles runAvg speedWind from/ knotsBaromVisibWave heightAir tempDewpointWater temp
2017-Sep-19 03:06N 50°07' W 000°56'1 7.0
2017-Sep-19 02:57N 50°07' W 000°58'3 6.7
2017-Sep-19 02:30N 50°06' W 001°02'3 6.3
2017-Sep-19 02:00N 50°06' W 001°07'3 5.8
2017-Sep-19 01:30N 50°05' W 001°12'3 5.8
2017-Sep-19 01:01N 50°04' W 001°16'3 5.6
2017-Sep-19 00:31N 50°03' W 001°20'3 5.6
2017-Sep-19 00:00N 50°03' W 001°24'3 6.2
2017-Sep-18 23:31N 50°02' W 001°29'3 6.8
2017-Sep-18 23:00N 50°01' W 001°34'4 7.7
2017-Sep-18 22:31N 49°60' W 001°40'4 8.5
2017-Sep-18 22:00N 49°59' W 001°46'5 9.2
2017-Sep-18 21:30N 49°57' W 001°53'510.0
2017-Sep-18 21:00N 49°56' W 002°01'2911.3
2017-Sep-18 18:25N 49°49' W 002°44'92 9.3
2017-Sep-18 08:26N 48°55' W 004°40'3 7.2
2017-Sep-18 08:00N 48°53' W 004°43'4 7.3
2017-Sep-18 07:29N 48°51' W 004°48'4 7.5
2017-Sep-18 07:00N 48°49' W 004°52'4 7.7
2017-Sep-18 06:30N 48°46' W 004°57'4 8.0
2017-Sep-18 06:00N 48°44' W 005°02'4 8.3
2017-Sep-18 05:30N 48°41' W 005°07'5 9.0
2017-Sep-18 05:00N 48°39' W 005°12'5 9.1
2017-Sep-18 04:30N 48°35' W 005°17'5 9.6
2017-Sep-18 04:00N 48°32' W 005°22'4 8.6
2017-Sep-18 03:30N 48°28' W 005°22'5 9.7
2017-Sep-18 02:58N 48°23' W 005°20'5 9.7
2017-Sep-18 02:30N 48°18' W 005°18'5 9.7
2017-Sep-18 02:00N 48°14' W 005°16'5 9.8
2017-Sep-18 01:30N 48°09' W 005°13'510.3
2017-Sep-18 01:00N 48°04' W 005°11'510.7
2017-Sep-18 00:31N 47°59' W 005°08'510.3
2017-Sep-18 00:00N 47°54' W 005°06'510.1
2017-Sep-17 23:30N 47°49' W 005°03'5 9.7
2017-Sep-17 23:00N 47°45' W 005°01'5 9.6
2017-Sep-17 22:29N 47°40' W 004°59'238 8.0
2017-Sep-16 16:34N 43°53' W 003°18'2 7.8
2017-Sep-16 16:21N 43°51' W 003°17'3 7.9
2017-Sep-16 16:00N 43°48' W 003°16'4 7.8
2017-Sep-16 15:29N 43°45' W 003°14'4 7.5
2017-Sep-16 15:00N 43°41' W 003°13'4 7.0
2017-Sep-16 14:30N 43°38' W 003°11'3 6.9
2017-Sep-16 14:00N 43°35' W 003°10'4 7.2
2017-Sep-16 13:30N 43°31' W 003°09'4 7.8
2017-Sep-16 13:00N 43°27' W 003°07'4 8.0
2017-Sep-16 12:30N 43°24' W 003°05'3 5.4
2017-Sep-16 12:00N 43°21' W 003°03'1 1.0
2017-Sep-16 11:28N 43°22' W 003°04'0 0.0
2017-Sep-16 10:58N 43°22' W 003°04'0 0.0
2017-Sep-16 10:28N 43°22' W 003°04'0 0.0
2017-Sep-16 09:58N 43°22' W 003°04'0 0.0
2017-Sep-16 09:28N 43°22' W 003°04'0 0.0
2017-Sep-16 08:58N 43°22' W 003°04'0 0.0
2017-Sep-16 08:28N 43°22' W 003°04'0 0.0
2017-Sep-16 07:58N 43°22' W 003°04'0 0.0
2017-Sep-16 07:28N 43°22' W 003°04'0 0.0
2017-Sep-16 06:58N 43°22' W 003°04'0 0.0
2017-Sep-16 06:28N 43°22' W 003°04'0 0.0
2017-Sep-16 05:58N 43°22' W 003°04'0 0.0
2017-Sep-16 05:28N 43°22' W 003°04'0 0.0
2017-Sep-16 04:58N 43°22' W 003°04'0 0.0
2017-Sep-16 04:28N 43°22' W 003°04'0 0.0
2017-Sep-16 03:52N 43°22' W 003°04'0 0.0
2017-Sep-16 03:28N 43°22' W 003°04'0 0.0
2017-Sep-16 02:58N 43°22' W 003°04'0 0.0
2017-Sep-16 02:28N 43°22' W 003°04'0 0.0
2017-Sep-16 01:58N 43°22' W 003°04'0 0.0
2017-Sep-16 01:28N 43°22' W 003°04'0 0.0
2017-Sep-16 00:58N 43°22' W 003°04'0 0.0
2017-Sep-16 00:28N 43°22' W 003°04'0 0.0
2017-Sep-15 23:58N 43°22' W 003°04'0 0.0
2017-Sep-15 23:28N 43°22' W 003°04'0 0.0
2017-Sep-15 22:58N 43°22' W 003°04'0 0.0
2017-Sep-15 22:28N 43°22' W 003°04'0 0.0
2017-Sep-15 21:58N 43°22' W 003°04'0 0.0
2017-Sep-15 21:28N 43°22' W 003°04'0 0.0
2017-Sep-15 20:58N 43°22' W 003°04'0 0.0
2017-Sep-15 20:28N 43°22' W 003°04'0 0.0
2017-Sep-15 19:58N 43°22' W 003°04'0 0.0
2017-Sep-15 19:28N 43°22' W 003°04'0 0.0
2017-Sep-15 18:58N 43°22' W 003°04'0 0.0
2017-Sep-15 18:28N 43°22' W 003°04'0 0.0
2017-Sep-15 17:58N 43°22' W 003°04'1 2.0
2017-Sep-15 17:30N 43°21' W 003°03'1 1.7
2017-Sep-15 17:00N 43°20' W 003°02'0 0.0
2017-Sep-15 16:30N 43°20' W 003°02'0 0.0
2017-Sep-15 16:00N 43°20' W 003°02'0 0.0
2017-Sep-15 15:30N 43°20' W 003°02'0 0.0
2017-Sep-15 14:57N 43°20' W 003°02'0 0.0
2017-Sep-15 14:30N 43°20' W 003°02'0 0.0
2017-Sep-15 14:00N 43°20' W 003°02'0 0.0
2017-Sep-15 13:30N 43°20' W 003°02'0 0.0
2017-Sep-15 13:00N 43°20' W 003°02'0 0.0
2017-Sep-15 12:30N 43°20' W 003°02'0 0.0
2017-Sep-15 12:00N 43°20' W 003°02'0 0.0
2017-Sep-15 11:29N 43°20' W 003°02'0 0.0
2017-Sep-15 10:56N 43°20' W 003°02'0 0.0
2017-Sep-15 10:29N 43°20' W 003°02'0 0.0
2017-Sep-15 09:59N 43°20' W 003°02'0 0.0
2017-Sep-15 09:29N 43°20' W 003°02'0 0.0
2017-Sep-15 08:59N 43°20' W 003°02'0 0.0
2017-Sep-15 08:29N 43°20' W 003°02'0 0.0
2017-Sep-15 07:59N 43°20' W 003°02'0 0.0
2017-Sep-15 07:29N 43°20' W 003°02'0 0.0
2017-Sep-15 06:59N 43°20' W 003°02'0 0.0
2017-Sep-15 06:30N 43°20' W 003°02'2 4.0
2017-Sep-15 06:00N 43°22' W 003°04'3 6.3
2017-Sep-15 05:31N 43°25' W 003°05'1 1.2
2017-Sep-15 05:00N 43°25' W 003°06'4 8.6
2017-Sep-15 04:30N 43°29' W 003°08'4 8.8
2017-Sep-15 04:01N 43°33' W 003°10'4 8.8
2017-Sep-15 03:31N 43°38' W 003°11'4 8.7
2017-Sep-15 03:01N 43°42' W 003°13'4 8.9
2017-Sep-15 02:30N 43°46' W 003°15'5 9.0
2017-Sep-15 02:00N 43°50' W 003°17'235 8.5
2017-Sep-13 22:25N 47°34' W 005°02'3 8.0
2017-Sep-13 22:00N 47°37' W 005°03'4 7.9
2017-Sep-13 21:30N 47°41' W 005°05'4 7.8
2017-Sep-13 21:00N 47°45' W 005°07'4 7.8
2017-Sep-13 20:31N 47°48' W 005°08'4 7.3
2017-Sep-13 20:00N 47°52' W 005°10'4 7.1
2017-Sep-13 19:30N 47°55' W 005°11'4 7.1
2017-Sep-13 18:59N 47°59' W 005°13'3 6.7
2017-Sep-13 18:30N 48°02' W 005°14'4 7.2
2017-Sep-13 17:56N 48°06' W 005°16'3 7.8
2017-Sep-13 17:30N 48°09' W 005°17'18 8.2
2017-Sep-13 15:23N 48°26' W 005°24'4 8.5
2017-Sep-13 14:53N 48°30' W 005°26'3 7.1
2017-Sep-13 14:29N 48°31' W 005°22'4 7.7
2017-Sep-13 14:00N 48°34' W 005°18'4 7.8
2017-Sep-13 13:30N 48°37' W 005°15'3 6.5
2017-Sep-13 13:00N 48°39' W 005°10'3 6.7
2017-Sep-13 12:30N 48°40' W 005°06'3 6.3
2017-Sep-13 12:00N 48°41' W 005°01'3 6.3
2017-Sep-13 11:30N 48°42' W 004°57'3 6.2
2017-Sep-13 11:00N 48°44' W 004°53'3 6.0
2017-Sep-13 10:30N 48°45' W 004°49'3 5.6
2017-Sep-13 10:00N 48°46' W 004°45'3 5.0
2017-Sep-13 09:29N 48°47' W 004°41'3 4.6
2017-Sep-13 08:49N 48°49' W 004°37'1 4.3
2017-Sep-13 08:29N 48°50' W 004°35'45 5.5
2017-Sep-13 00:22N 49°13' W 003°36'2 5.2
2017-Sep-12 23:56N 49°15' W 003°34'2 5.1
2017-Sep-12 23:26N 49°17' W 003°33'3 4.9
2017-Sep-12 22:55N 49°19' W 003°31'2 4.5
2017-Sep-12 22:26N 49°21' W 003°30'2 4.5
2017-Sep-12 22:00N 49°23' W 003°29'2 4.1
2017-Sep-12 21:30N 49°25' W 003°28'2 3.8
2017-Sep-12 21:00N 49°27' W 003°28'2 3.9
2017-Sep-12 20:24N 49°29' W 003°27'6 4.3
2017-Sep-12 18:58N 49°35' W 003°24'2 5.2
2017-Sep-12 18:31N 49°37' W 003°21'3 6.0
2017-Sep-12 18:01N 49°40' W 003°19'3 6.7
2017-Sep-12 17:30N 49°43' W 003°17'4 7.2
2017-Sep-12 17:00N 49°46' W 003°14'4 7.6
2017-Sep-12 16:31N 49°49' W 003°12'4 8.0
2017-Sep-12 16:00N 49°53' W 003°09'4 8.1
2017-Sep-12 15:30N 49°57' W 003°07'4 8.0
2017-Sep-12 15:01N 50°00' W 003°05'4 8.1
2017-Sep-12 14:31N 50°04' W 003°02'4 8.0
2017-Sep-12 14:01N 50°07' W 002°59'4 7.0
2017-Sep-12 13:30N 50°09' W 002°54'3 6.9
2017-Sep-12 13:00N 50°10' W 002°49'4 6.4
2017-Sep-12 12:27N 50°11' W 002°44'4 5.9
2017-Sep-12 11:46N 50°13' W 002°38'1 5.6
2017-Sep-12 11:30N 50°13' W 002°36'50 8.0
2017-Sep-12 05:12N 50°28' W 001°21'210.4
2017-Sep-12 04:59N 50°28' W 001°17'510.3
2017-Sep-12 04:30N 50°29' W 001°10'510.0
2017-Sep-12 04:00N 50°30' W 001°02'5 9.4
2017-Sep-12 03:30N 50°30' W 000°55'7 8.1
2017-Sep-12 02:41N 50°31' W 000°44'1 7.2
2017-Sep-12 02:30N 50°32' W 000°42'3 6.7
2017-Sep-12 02:00N 50°32' W 000°37'3 5.9
2017-Sep-12 01:30N 50°32' W 000°32'2 5.0
2017-Sep-12 01:01N 50°32' W 000°29'2 4.5
2017-Sep-12 00:30N 50°32' W 000°25'2 4.1
2017-Sep-12 00:00N 50°32' W 000°22'2 3.7
2017-Sep-11 23:30N 50°32' W 000°19'2 3.8
2017-Sep-11 23:00N 50°32' W 000°16'2 3.9
2017-Sep-11 22:30N 50°32' W 000°13'2 4.4
2017-Sep-11 22:00N 50°32' W 000°09'3 5.3
2017-Sep-11 21:30N 50°32' W 000°05'3 5.7
2017-Sep-11 21:00N 50°33' W 000°01'3 5.9
2017-Sep-11 20:30N 50°33' E 000°04'3 6.5
2017-Sep-11 20:00N 50°34' E 000°09'3 6.5
2017-Sep-11 19:30N 50°35' E 000°14'3 6.5
2017-Sep-11 19:01N 50°36' E 000°19'3 6.7
2017-Sep-11 18:30N 50°36' E 000°24'3 6.2
2017-Sep-11 18:01N 50°37' E 000°28'3 6.3
2017-Sep-11 17:31N 50°39' E 000°33'3 5.9
2017-Sep-11 17:01N 50°40' E 000°37'3 5.7
2017-Sep-11 16:31N 50°42' E 000°41'3 5.3
2017-Sep-11 16:01N 50°43' E 000°44'2 4.9
2017-Sep-11 15:31N 50°45' E 000°47'2 4.5
2017-Sep-11 15:01N 50°46' E 000°50'2 4.0
2017-Sep-11 14:31N 50°47' E 000°53'2 3.7
2017-Sep-11 14:00N 50°48' E 000°55'2 3.7
2017-Sep-11 13:30N 50°49' E 000°58'2 3.8
2017-Sep-11 13:00N 50°50' E 001°00'2 3.8
2017-Sep-11 12:30N 50°51' E 001°03'2 4.1
2017-Sep-11 11:56N 50°53' E 001°05'2 4.9
2017-Sep-11 11:31N 50°54' E 001°08'3 5.3
2017-Sep-11 10:53N 50°56' E 001°12'2 6.0
2017-Sep-11 10:30N 50°58' E 001°15'6 6.8
2017-Sep-11 09:38N 51°02' E 001°22'1 6.8
2017-Sep-11 09:30N 51°02' E 001°23'3 6.9
2017-Sep-11 09:01N 51°04' E 001°27'4 7.1
2017-Sep-11 08:30N 51°07' E 001°31'3 6.8
2017-Sep-11 08:01N 51°09' E 001°35'3 6.4
2017-Sep-11 07:30N 51°11' E 001°39'3 5.9
2017-Sep-11 07:01N 51°13' E 001°43'3 5.8
2017-Sep-11 06:30N 51°15' E 001°46'3 5.5
2017-Sep-11 06:01N 51°18' E 001°48'3 5.2
2017-Sep-11 05:31N 51°20' E 001°49'2 5.0
2017-Sep-11 05:00N 51°22' E 001°51'2 4.6
2017-Sep-11 04:30N 51°24' E 001°53'2 4.7
2017-Sep-11 04:01N 51°26' E 001°54'2 4.6
2017-Sep-11 03:30N 51°28' E 001°56'2 4.4
2017-Sep-11 03:00N 51°30' E 001°59'2 4.2
2017-Sep-11 02:30N 51°32' E 002°01'2 4.3
2017-Sep-11 02:00N 51°33' E 002°03'2 4.7
2017-Sep-11 01:31N 51°35' E 002°06'3 5.3
2017-Sep-11 01:00N 51°37' E 002°09'3 6.2
2017-Sep-11 00:29N 51°39' E 002°13'69 5.3
2017-Sep-10 11:33N 52°21' E 003°41'4 9.5
2017-Sep-10 11:11N 52°23' E 003°46'2 9.4
2017-Sep-10 10:59N 52°23' E 003°49'5 9.4
2017-Sep-10 10:30N 52°24' E 003°56'5 9.3
2017-Sep-10 10:00N 52°25' E 004°04'5 9.2
2017-Sep-10 09:30N 52°27' E 004°11'4 9.0
2017-Sep-10 09:01N 52°27' E 004°18'4 8.8
2017-Sep-10 08:31N 52°27' E 004°26'3 6.2
2017-Sep-10 08:01N 52°28' E 004°30'4 7.3
2017-Sep-10 07:30N 52°28' E 004°36'0 0.0
2017-Sep-10 06:59N 52°28' E 004°36'0 0.0
2017-Sep-10 06:29N 52°28' E 004°36'0 0.0
2017-Sep-10 05:59N 52°28' E 004°36'0 0.0
2017-Sep-10 05:29N 52°28' E 004°36'0 0.0
2017-Sep-10 04:59N 52°28' E 004°36'0 0.0
2017-Sep-10 04:29N 52°28' E 004°36'0 0.0
2017-Sep-10 03:56N 52°28' E 004°36'0 0.0
2017-Sep-10 03:29N 52°28' E 004°36'0 0.0
2017-Sep-10 02:59N 52°28' E 004°36'0 0.0
2017-Sep-10 02:29N 52°28' E 004°36'0 0.0
2017-Sep-10 01:59N 52°28' E 004°36'0 0.0
2017-Sep-10 01:29N 52°28' E 004°36'0 0.0
2017-Sep-10 00:59N 52°28' E 004°36'0 0.0
2017-Sep-10 00:29N 52°28' E 004°36'0 0.0
2017-Sep-09 23:59N 52°28' E 004°36'0 0.0
2017-Sep-09 23:29N 52°28' E 004°36'0 0.0
2017-Sep-09 22:59N 52°28' E 004°36'0 0.0
2017-Sep-09 22:29N 52°28' E 004°36'0 0.0
2017-Sep-09 21:59N 52°28' E 004°36'0 0.0
2017-Sep-09 21:29N 52°28' E 004°36'0 0.0
2017-Sep-09 20:59N 52°28' E 004°36'0 0.0
2017-Sep-09 20:29N 52°28' E 004°36'0 0.0
2017-Sep-09 19:59N 52°28' E 004°36'0 0.0
2017-Sep-09 19:29N 52°28' E 004°36'0 0.0
2017-Sep-09 18:59N 52°28' E 004°36'0 0.0
2017-Sep-09 18:29N 52°28' E 004°36'0 0.1
2017-Sep-09 17:59N 52°28' E 004°36'0 0.1
2017-Sep-09 17:29N 52°28' E 004°36'0 0.0
2017-Sep-09 16:59N 52°28' E 004°36'0 0.0
2017-Sep-09 16:29N 52°28' E 004°36'0 0.0
2017-Sep-09 15:59N 52°28' E 004°36'0 0.0
2017-Sep-09 15:29N 52°28' E 004°36'0 0.0
2017-Sep-09 14:59N 52°28' E 004°36'0 0.0
2017-Sep-09 14:29N 52°28' E 004°36'0 0.0
2017-Sep-09 13:58N 52°28' E 004°36'0 0.0
2017-Sep-09 13:28N 52°28' E 004°36'0 0.0
2017-Sep-09 12:58N 52°28' E 004°36'0 0.0
2017-Sep-09 12:28N 52°28' E 004°36'0 0.0
2017-Sep-09 11:52N 52°28' E 004°36'0 0.0
2017-Sep-09 11:28N 52°28' E 004°36'0 0.0
2017-Sep-09 10:58N 52°28' E 004°36'0 0.0
2017-Sep-09 10:28N 52°28' E 004°36'0 0.0
2017-Sep-09 09:58N 52°28' E 004°36'0 0.0
2017-Sep-09 09:28N 52°28' E 004°36'0 0.0
2017-Sep-09 08:58N 52°28' E 004°36'0 0.0
2017-Sep-09 08:28N 52°28' E 004°36'0 0.0
2017-Sep-09 07:58N 52°28' E 004°36'0 0.0
2017-Sep-09 07:28N 52°28' E 004°36'0 0.0
2017-Sep-09 06:58N 52°28' E 004°36'0 0.0
2017-Sep-09 06:25N 52°28' E 004°36'0 0.0
2017-Sep-09 05:58N 52°28' E 004°36'0 0.4
2017-Sep-09 05:28N 52°29' E 004°36'0 0.4
2017-Sep-09 04:58N 52°28' E 004°36'0 0.0
2017-Sep-09 04:28N 52°28' E 004°36'0 0.0
2017-Sep-09 03:58N 52°28' E 004°36'0 0.0
2017-Sep-09 03:28N 52°28' E 004°36'  
Track history (hours):
 
Tides and Currents Weather Stations Pressure Air Temp Water Temp Dewpoint Dewpoint Depression Visibility Wind Speed Wind Dir Waves Ship Positions

Hathor

Last reported at 2017-Sep-19 03:06 UTC. Time now 2017-Sep-19 11:49 UTC.
Position N 50°07' W 000°56'.

Length 89 m; draft 5.6 m.

Type: Cargo ship. MMSI: 244176000.

Date/timePositionNaut miles runAvg speedWind from/ knotsBaromVisibWave heightAir tempDewpointWater temp
2017-Sep-19 03:06N 50°07' W 000°56'1 7.0
2017-Sep-19 02:57N 50°07' W 000°58'3 6.7
2017-Sep-19 02:30N 50°06' W 001°02'3 6.3
2017-Sep-19 02:00N 50°06' W 001°07'3 5.8
2017-Sep-19 01:30N 50°05' W 001°12'3 5.8
2017-Sep-19 01:01N 50°04' W 001°16'3 5.6
2017-Sep-19 00:31N 50°03' W 001°20'3 5.6
2017-Sep-19 00:00N 50°03' W 001°24'3 6.2
2017-Sep-18 23:31N 50°02' W 001°29'3 6.8
2017-Sep-18 23:00N 50°01' W 001°34'4 7.7
2017-Sep-18 22:31N 49°60' W 001°40'4 8.5
2017-Sep-18 22:00N 49°59' W 001°46'5 9.2
2017-Sep-18 21:30N 49°57' W 001°53'510.0
2017-Sep-18 21:00N 49°56' W 002°01'2911.3
2017-Sep-18 18:25N 49°49' W 002°44'92 9.3
2017-Sep-18 08:26N 48°55' W 004°40'3 7.2
2017-Sep-18 08:00N 48°53' W 004°43'4 7.3
2017-Sep-18 07:29N 48°51' W 004°48'4 7.5
2017-Sep-18 07:00N 48°49' W 004°52'4 7.7
2017-Sep-18 06:30N 48°46' W 004°57'4 8.0
2017-Sep-18 06:00N 48°44' W 005°02'4 8.3
2017-Sep-18 05:30N 48°41' W 005°07'5 9.0
2017-Sep-18 05:00N 48°39' W 005°12'5 9.1
2017-Sep-18 04:30N 48°35' W 005°17'5 9.6
2017-Sep-18 04:00N 48°32' W 005°22'4 8.6
2017-Sep-18 03:30N 48°28' W 005°22'5 9.7
2017-Sep-18 02:58N 48°23' W 005°20'5 9.7
2017-Sep-18 02:30N 48°18' W 005°18'5 9.7
2017-Sep-18 02:00N 48°14' W 005°16'5 9.8
2017-Sep-18 01:30N 48°09' W 005°13'510.3
2017-Sep-18 01:00N 48°04' W 005°11'510.7
2017-Sep-18 00:31N 47°59' W 005°08'510.3
2017-Sep-18 00:00N 47°54' W 005°06'510.1
2017-Sep-17 23:30N 47°49' W 005°03'5 9.7
2017-Sep-17 23:00N 47°45' W 005°01'5 9.6
2017-Sep-17 22:29N 47°40' W 004°59'238 8.0
2017-Sep-16 16:34N 43°53' W 003°18'2 7.8
2017-Sep-16 16:21N 43°51' W 003°17'3 7.9
2017-Sep-16 16:00N 43°48' W 003°16'4 7.8
2017-Sep-16 15:29N 43°45' W 003°14'4 7.5
2017-Sep-16 15:00N 43°41' W 003°13'4 7.0
2017-Sep-16 14:30N 43°38' W 003°11'3 6.9
2017-Sep-16 14:00N 43°35' W 003°10'4 7.2
2017-Sep-16 13:30N 43°31' W 003°09'4 7.8
2017-Sep-16 13:00N 43°27' W 003°07'4 8.0
2017-Sep-16 12:30N 43°24' W 003°05'3 5.4
2017-Sep-16 12:00N 43°21' W 003°03'1 1.0
2017-Sep-16 11:28N 43°22' W 003°04'0 0.0
2017-Sep-16 10:58N 43°22' W 003°04'0 0.0
2017-Sep-16 10:28N 43°22' W 003°04'0 0.0
2017-Sep-16 09:58N 43°22' W 003°04'0 0.0
2017-Sep-16 09:28N 43°22' W 003°04'0 0.0
2017-Sep-16 08:58N 43°22' W 003°04'0 0.0
2017-Sep-16 08:28N 43°22' W 003°04'0 0.0
2017-Sep-16 07:58N 43°22' W 003°04'0 0.0
2017-Sep-16 07:28N 43°22' W 003°04'0 0.0
2017-Sep-16 06:58N 43°22' W 003°04'0 0.0
2017-Sep-16 06:28N 43°22' W 003°04'0 0.0
2017-Sep-16 05:58N 43°22' W 003°04'0 0.0
2017-Sep-16 05:28N 43°22' W 003°04'0 0.0
2017-Sep-16 04:58N 43°22' W 003°04'0 0.0
2017-Sep-16 04:28N 43°22' W 003°04'0 0.0
2017-Sep-16 03:52N 43°22' W 003°04'0 0.0
2017-Sep-16 03:28N 43°22' W 003°04'0 0.0
2017-Sep-16 02:58N 43°22' W 003°04'0 0.0
2017-Sep-16 02:28N 43°22' W 003°04'0 0.0
2017-Sep-16 01:58N 43°22' W 003°04'0 0.0
2017-Sep-16 01:28N 43°22' W 003°04'0 0.0
2017-Sep-16 00:58N 43°22' W 003°04'0 0.0
2017-Sep-16 00:28N 43°22' W 003°04'0 0.0
2017-Sep-15 23:58N 43°22' W 003°04'0 0.0
2017-Sep-15 23:28N 43°22' W 003°04'0 0.0
2017-Sep-15 22:58N 43°22' W 003°04'0 0.0
2017-Sep-15 22:28N 43°22' W 003°04'0 0.0
2017-Sep-15 21:58N 43°22' W 003°04'0 0.0
2017-Sep-15 21:28N 43°22' W 003°04'0 0.0
2017-Sep-15 20:58N 43°22' W 003°04'0 0.0
2017-Sep-15 20:28N 43°22' W 003°04'0 0.0
2017-Sep-15 19:58N 43°22' W 003°04'0 0.0
2017-Sep-15 19:28N 43°22' W 003°04'0 0.0
2017-Sep-15 18:58N 43°22' W 003°04'0 0.0
2017-Sep-15 18:28N 43°22' W 003°04'0 0.0
2017-Sep-15 17:58N 43°22' W 003°04'1 2.0
2017-Sep-15 17:30N 43°21' W 003°03'1 1.7
2017-Sep-15 17:00N 43°20' W 003°02'0 0.0
2017-Sep-15 16:30N 43°20' W 003°02'0 0.0
2017-Sep-15 16:00N 43°20' W 003°02'0 0.0
2017-Sep-15 15:30N 43°20' W 003°02'0 0.0
2017-Sep-15 14:57N 43°20' W 003°02'0 0.0
2017-Sep-15 14:30N 43°20' W 003°02'0 0.0
2017-Sep-15 14:00N 43°20' W 003°02'0 0.0
2017-Sep-15 13:30N 43°20' W 003°02'0 0.0
2017-Sep-15 13:00N 43°20' W 003°02'0 0.0
2017-Sep-15 12:30N 43°20' W 003°02'0 0.0
2017-Sep-15 12:00N 43°20' W 003°02'0 0.0
2017-Sep-15 11:29N 43°20' W 003°02'0 0.0
2017-Sep-15 10:56N 43°20' W 003°02'0 0.0
2017-Sep-15 10:29N 43°20' W 003°02'0 0.0
2017-Sep-15 09:59N 43°20' W 003°02'0 0.0
2017-Sep-15 09:29N 43°20' W 003°02'0 0.0
2017-Sep-15 08:59N 43°20' W 003°02'0 0.0
2017-Sep-15 08:29N 43°20' W 003°02'0 0.0
2017-Sep-15 07:59N 43°20' W 003°02'0 0.0
2017-Sep-15 07:29N 43°20' W 003°02'0 0.0
2017-Sep-15 06:59N 43°20' W 003°02'0 0.0
2017-Sep-15 06:30N 43°20' W 003°02'2 4.0
2017-Sep-15 06:00N 43°22' W 003°04'3 6.3
2017-Sep-15 05:31N 43°25' W 003°05'1 1.2
2017-Sep-15 05:00N 43°25' W 003°06'4 8.6
2017-Sep-15 04:30N 43°29' W 003°08'4 8.8
2017-Sep-15 04:01N 43°33' W 003°10'4 8.8
2017-Sep-15 03:31N 43°38' W 003°11'4 8.7
2017-Sep-15 03:01N 43°42' W 003°13'4 8.9
2017-Sep-15 02:30N 43°46' W 003°15'5 9.0
2017-Sep-15 02:00N 43°50' W 003°17'235 8.5
2017-Sep-13 22:25N 47°34' W 005°02'3 8.0
2017-Sep-13 22:00N 47°37' W 005°03'4 7.9
2017-Sep-13 21:30N 47°41' W 005°05'4 7.8
2017-Sep-13 21:00N 47°45' W 005°07'4 7.8
2017-Sep-13 20:31N 47°48' W 005°08'4 7.3
2017-Sep-13 20:00N 47°52' W 005°10'4 7.1
2017-Sep-13 19:30N 47°55' W 005°11'4 7.1
2017-Sep-13 18:59N 47°59' W 005°13'3 6.7
2017-Sep-13 18:30N 48°02' W 005°14'4 7.2
2017-Sep-13 17:56N 48°06' W 005°16'3 7.8
2017-Sep-13 17:30N 48°09' W 005°17'18 8.2
2017-Sep-13 15:23N 48°26' W 005°24'4 8.5
2017-Sep-13 14:53N 48°30' W 005°26'3 7.1
2017-Sep-13 14:29N 48°31' W 005°22'4 7.7
2017-Sep-13 14:00N 48°34' W 005°18'4 7.8
2017-Sep-13 13:30N 48°37' W 005°15'3 6.5
2017-Sep-13 13:00N 48°39' W 005°10'3 6.7
2017-Sep-13 12:30N 48°40' W 005°06'3 6.3
2017-Sep-13 12:00N 48°41' W 005°01'3 6.3
2017-Sep-13 11:30N 48°42' W 004°57'3 6.2
2017-Sep-13 11:00N 48°44' W 004°53'3 6.0
2017-Sep-13 10:30N 48°45' W 004°49'3 5.6
2017-Sep-13 10:00N 48°46' W 004°45'3 5.0
2017-Sep-13 09:29N 48°47' W 004°41'3 4.6
2017-Sep-13 08:49N 48°49' W 004°37'1 4.3
2017-Sep-13 08:29N 48°50' W 004°35'45 5.5
2017-Sep-13 00:22N 49°13' W 003°36'2 5.2
2017-Sep-12 23:56N 49°15' W 003°34'2 5.1
2017-Sep-12 23:26N 49°17' W 003°33'3 4.9
2017-Sep-12 22:55N 49°19' W 003°31'2 4.5
2017-Sep-12 22:26N 49°21' W 003°30'2 4.5
2017-Sep-12 22:00N 49°23' W 003°29'2 4.1
2017-Sep-12 21:30N 49°25' W 003°28'2 3.8
2017-Sep-12 21:00N 49°27' W 003°28'2 3.9
2017-Sep-12 20:24N 49°29' W 003°27'6 4.3
2017-Sep-12 18:58N 49°35' W 003°24'2 5.2
2017-Sep-12 18:31N 49°37' W 003°21'3 6.0
2017-Sep-12 18:01N 49°40' W 003°19'3 6.7
2017-Sep-12 17:30N 49°43' W 003°17'4 7.2
2017-Sep-12 17:00N 49°46' W 003°14'4 7.6
2017-Sep-12 16:31N 49°49' W 003°12'4 8.0
2017-Sep-12 16:00N 49°53' W 003°09'4 8.1
2017-Sep-12 15:30N 49°57' W 003°07'4 8.0
2017-Sep-12 15:01N 50°00' W 003°05'4 8.1
2017-Sep-12 14:31N 50°04' W 003°02'4 8.0
2017-Sep-12 14:01N 50°07' W 002°59'4 7.0
2017-Sep-12 13:30N 50°09' W 002°54'3 6.9
2017-Sep-12 13:00N 50°10' W 002°49'4 6.4
2017-Sep-12 12:27N 50°11' W 002°44'4 5.9
2017-Sep-12 11:46N 50°13' W 002°38'1 5.6
2017-Sep-12 11:30N 50°13' W 002°36'50 8.0
2017-Sep-12 05:12N 50°28' W 001°21'210.4
2017-Sep-12 04:59N 50°28' W 001°17'510.3
2017-Sep-12 04:30N 50°29' W 001°10'510.0
2017-Sep-12 04:00N 50°30' W 001°02'5 9.4
2017-Sep-12 03:30N 50°30' W 000°55'7 8.1
2017-Sep-12 02:41N 50°31' W 000°44'1 7.2
2017-Sep-12 02:30N 50°32' W 000°42'3 6.7
2017-Sep-12 02:00N 50°32' W 000°37'3 5.9
2017-Sep-12 01:30N 50°32' W 000°32'2 5.0
2017-Sep-12 01:01N 50°32' W 000°29'2 4.5
2017-Sep-12 00:30N 50°32' W 000°25'2 4.1
2017-Sep-12 00:00N 50°32' W 000°22'2 3.7
2017-Sep-11 23:30N 50°32' W 000°19'2 3.8
2017-Sep-11 23:00N 50°32' W 000°16'2 3.9
2017-Sep-11 22:30N 50°32' W 000°13'2 4.4
2017-Sep-11 22:00N 50°32' W 000°09'3 5.3
2017-Sep-11 21:30N 50°32' W 000°05'3 5.7
2017-Sep-11 21:00N 50°33' W 000°01'3 5.9
2017-Sep-11 20:30N 50°33' E 000°04'3 6.5
2017-Sep-11 20:00N 50°34' E 000°09'3 6.5
2017-Sep-11 19:30N 50°35' E 000°14'3 6.5
2017-Sep-11 19:01N 50°36' E 000°19'3 6.7
2017-Sep-11 18:30N 50°36' E 000°24'3 6.2
2017-Sep-11 18:01N 50°37' E 000°28'3 6.3
2017-Sep-11 17:31N 50°39' E 000°33'3 5.9
2017-Sep-11 17:01N 50°40' E 000°37'3 5.7
2017-Sep-11 16:31N 50°42' E 000°41'3 5.3
2017-Sep-11 16:01N 50°43' E 000°44'2 4.9
2017-Sep-11 15:31N 50°45' E 000°47'2 4.5
2017-Sep-11 15:01N 50°46' E 000°50'2 4.0
2017-Sep-11 14:31N 50°47' E 000°53'2 3.7
2017-Sep-11 14:00N 50°48' E 000°55'2 3.7
2017-Sep-11 13:30N 50°49' E 000°58'2 3.8
2017-Sep-11 13:00N 50°50' E 001°00'2 3.8
2017-Sep-11 12:30N 50°51' E 001°03'2 4.1
2017-Sep-11 11:56N 50°53' E 001°05'2 4.9
2017-Sep-11 11:31N 50°54' E 001°08'3 5.3
2017-Sep-11 10:53N 50°56' E 001°12'2 6.0
2017-Sep-11 10:30N 50°58' E 001°15'6 6.8
2017-Sep-11 09:38N 51°02' E 001°22'1 6.8
2017-Sep-11 09:30N 51°02' E 001°23'3 6.9
2017-Sep-11 09:01N 51°04' E 001°27'4 7.1
2017-Sep-11 08:30N 51°07' E 001°31'3 6.8
2017-Sep-11 08:01N 51°09' E 001°35'3 6.4
2017-Sep-11 07:30N 51°11' E 001°39'3 5.9
2017-Sep-11 07:01N 51°13' E 001°43'3 5.8
2017-Sep-11 06:30N 51°15' E 001°46'3 5.5
2017-Sep-11 06:01N 51°18' E 001°48'3 5.2
2017-Sep-11 05:31N 51°20' E 001°49'2 5.0
2017-Sep-11 05:00N 51°22' E 001°51'2 4.6
2017-Sep-11 04:30N 51°24' E 001°53'2 4.7
2017-Sep-11 04:01N 51°26' E 001°54'2 4.6
2017-Sep-11 03:30N 51°28' E 001°56'2 4.4
2017-Sep-11 03:00N 51°30' E 001°59'2 4.2
2017-Sep-11 02:30N 51°32' E 002°01'2 4.3
2017-Sep-11 02:00N 51°33' E 002°03'2 4.7
2017-Sep-11 01:31N 51°35' E 002°06'3 5.3
2017-Sep-11 01:00N 51°37' E 002°09'3 6.2
2017-Sep-11 00:29N 51°39' E 002°13'69 5.3
2017-Sep-10 11:33N 52°21' E 003°41'4 9.5
2017-Sep-10 11:11N 52°23' E 003°46'2 9.4
2017-Sep-10 10:59N 52°23' E 003°49'5 9.4
2017-Sep-10 10:30N 52°24' E 003°56'5 9.3
2017-Sep-10 10:00N 52°25' E 004°04'5 9.2
2017-Sep-10 09:30N 52°27' E 004°11'4 9.0
2017-Sep-10 09:01N 52°27' E 004°18'4 8.8
2017-Sep-10 08:31N 52°27' E 004°26'3 6.2
2017-Sep-10 08:01N 52°28' E 004°30'4 7.3
2017-Sep-10 07:30N 52°28' E 004°36'0 0.0
2017-Sep-10 06:59N 52°28' E 004°36'0 0.0
2017-Sep-10 06:29N 52°28' E 004°36'0 0.0
2017-Sep-10 05:59N 52°28' E 004°36'0 0.0
2017-Sep-10 05:29N 52°28' E 004°36'0 0.0
2017-Sep-10 04:59N 52°28' E 004°36'0 0.0
2017-Sep-10 04:29N 52°28' E 004°36'0 0.0
2017-Sep-10 03:56N 52°28' E 004°36'0 0.0
2017-Sep-10 03:29N 52°28' E 004°36'0 0.0
2017-Sep-10 02:59N 52°28' E 004°36'0 0.0
2017-Sep-10 02:29N 52°28' E 004°36'0 0.0
2017-Sep-10 01:59N 52°28' E 004°36'0 0.0
2017-Sep-10 01:29N 52°28' E 004°36'0 0.0
2017-Sep-10 00:59N 52°28' E 004°36'0 0.0
2017-Sep-10 00:29N 52°28' E 004°36'0 0.0
2017-Sep-09 23:59N 52°28' E 004°36'0 0.0
2017-Sep-09 23:29N 52°28' E 004°36'0 0.0
2017-Sep-09 22:59N 52°28' E 004°36'0 0.0
2017-Sep-09 22:29N 52°28' E 004°36'0 0.0
2017-Sep-09 21:59N 52°28' E 004°36'0 0.0
2017-Sep-09 21:29N 52°28' E 004°36'0 0.0
2017-Sep-09 20:59N 52°28' E 004°36'0 0.0
2017-Sep-09 20:29N 52°28' E 004°36'0 0.0
2017-Sep-09 19:59N 52°28' E 004°36'0 0.0
2017-Sep-09 19:29N 52°28' E 004°36'0 0.0
2017-Sep-09 18:59N 52°28' E 004°36'0 0.0
2017-Sep-09 18:29N 52°28' E 004°36'0 0.1
2017-Sep-09 17:59N 52°28' E 004°36'0 0.1
2017-Sep-09 17:29N 52°28' E 004°36'0 0.0
2017-Sep-09 16:59N 52°28' E 004°36'0 0.0
2017-Sep-09 16:29N 52°28' E 004°36'0 0.0
2017-Sep-09 15:59N 52°28' E 004°36'0 0.0
2017-Sep-09 15:29N 52°28' E 004°36'0 0.0
2017-Sep-09 14:59N 52°28' E 004°36'0 0.0
2017-Sep-09 14:29N 52°28' E 004°36'0 0.0
2017-Sep-09 13:58N 52°28' E 004°36'0 0.0
2017-Sep-09 13:28N 52°28' E 004°36'0 0.0
2017-Sep-09 12:58N 52°28' E 004°36'0 0.0
2017-Sep-09 12:28N 52°28' E 004°36'0 0.0
2017-Sep-09 11:52N 52°28' E 004°36'0 0.0
2017-Sep-09 11:28N 52°28' E 004°36'0 0.0
2017-Sep-09 10:58N 52°28' E 004°36'0 0.0
2017-Sep-09 10:28N 52°28' E 004°36'0 0.0
2017-Sep-09 09:58N 52°28' E 004°36'0 0.0
2017-Sep-09 09:28N 52°28' E 004°36'0 0.0
2017-Sep-09 08:58N 52°28' E 004°36'0 0.0
2017-Sep-09 08:28N 52°28' E 004°36'0 0.0
2017-Sep-09 07:58N 52°28' E 004°36'0 0.0
2017-Sep-09 07:28N 52°28' E 004°36'0 0.0
2017-Sep-09 06:58N 52°28' E 004°36'0 0.0
2017-Sep-09 06:25N 52°28' E 004°36'0 0.0
2017-Sep-09 05:58N 52°28' E 004°36'0 0.4
2017-Sep-09 05:28N 52°29' E 004°36'0 0.4
2017-Sep-09 04:58N 52°28' E 004°36'0 0.0
2017-Sep-09 04:28N 52°28' E 004°36'0 0.0
2017-Sep-09 03:58N 52°28' E 004°36'0 0.0
2017-Sep-09 03:28N 52°28' E 004°36'  

Dump ship's entire track history